Aviation Digital Data Service (ADDS)

Output produced by METARs form (1243 UTC 22 February 2018)
found at http://www.aviationweather.gov/adds/metars/
 
DAUA 221200Z 35016KT 9000 NSC 21/M04 Q1003
TAF DAUA 221100Z 2212/2312 36014KT 8000 NSC 
     PROB40 2212/2218 36024KT 5000 DRSA 
     BECMG 2218/2221 06008KT 
     BECMG 2309/2311 16012KT
       
DABB 221230Z 26010KT 9999 FEW023TCU FEW026CB BKN033 12/07 Q1001
TAF DABB 221100Z 2212/2312 28014KT 6000 -RA FEW010 BKN023 
     PROB30 
     TEMPO 2212/2222 30020G30KT 3000 TSRAGR FEW015CB
       
DABT 221200Z 31010KT 9999 FEW010 FEW020TCU BKN023 06/01 Q1002
TAF DABT 221100Z 2212/2312 34014KT 7000 -SNRA FEW020TCU BKN026 
     PROB30 
     TEMPO 2218/2306 3000 SN BR SCT006 FEW015CB
       
DAOR 221200Z 36024KT 8000 SCT030 14/01 Q1006
TAF DAOR 221100Z 2212/2221 02022KT 8000 SCT030 
     PROB30 2212/2216 3000 DRSA 
     BECMG 2218/2220 02008KT
       
DAAE 221200Z 24008KT 6000 -RA SCT016TCU FEW023CB SCT040 10/06 Q1005
TAF DAAE 221100Z 2212/2312 33014KT 6000 -RA FEW015CB BKN023 
     PROB30 
     TEMPO 2212/2222 30020G30KT 3000 TSRAGR
       
DAUB 221200Z 34008KT 9999 FEW033TCU SCT033 16/04 Q1000
TAF DAUB 221100Z 2212/2312 28016KT 9999 SCT040 SCT100 
     PROB30 
     TEMPO 2212/2220 FEW026CB
       
DATM 221200Z 25014KT CAVOK 26/06 Q1008
TAF DATM 221100Z 2212/2221 26012KT CAVOK 
     PROB30 
     TEMPO 2215/2218 28015G25KT 5000 DRSA
       
DAAD 221200Z 34012KT 9999 BKN026 SCT080 10/02 Q1004
TAF DAAD 221100Z 2212/2221 36015KT 9999 SCT026 SCT030
       
DAOI 221200Z 20005KT 9999 BKN026 12/05 Q1007
TAF DAOI 221100Z 2212/2312 VRB02KT 9999 SCT026 
     BECMG 2213/2215 32010KT 
     PROB30 
     TEMPO 2215/2224 -TSRA SCT023CB BKN030 BKN100 
     BECMG 2220/2223 VRB02KT 
     BECMG 2309/2312 29010KT
       
DABC 221230Z 32014KT 8000 FEW010 FEW016TCU BKN026 05/03 Q1002
TAF DABC 221100Z 2212/2312 33014KT 7000 -RA FEW020TCU BKN026 
     PROB30 
     TEMPO 2212/2220 3000 -TSRA FEW015CB 
     BECMG 2220/2222 23005KT
       
DAAG 221230Z 34006KT 290V020 9999 SCT020TCU FEW026CB SCT040 13/05 Q1006
TAF DAAG 221100Z 2212/2312 36010KT 9999 FEW020 SCT040 
     TEMPO 2212/2218 SCT020TCU 
     PROB30 
     TEMPO 2212/2216 5000 -RA FEW023CB 
     BECMG 2216/2219 VRB02KT 
     BECMG 2308/2311 24012KT
       
DAAJ 221200Z 28010KT CAVOK 22/M03 Q1008
TAF DAAJ 221100Z 2212/2312 26006KT CAVOK
       
DAUE 221200Z 32021KT 8000 DRSA BKN033 16/03 Q1003
DAUO 221200Z 29008KT 9999 FEW033 BKN100 15/09 Q1000
TAF DAUO 221100Z 2212/2221 36010KT 9999 FEW033 SCT100 
     PROB40 
     TEMPO 2215/2221 30015G25KT 5000 -TSRA FEW036CB
       
DAUG 221200Z 34013KT 9999 FEW033 BKN040 12/M01 Q1003
TAF DAUG 221100Z 2212/2312 34012KT 9999 SCT033 SCT040 
     PROB40 
     TEMPO 2213/2218 FEW030CB 
     BECMG 2308/2311 24012KT
       
DAUH 221230Z 30015KT 9999 SCT033 SCT100 19/02 Q1001
TAF DAUH 221100Z 2212/2312 32012KT 9999 SCT033 SCT100 
     PROB40 
     TEMPO 2212/2218 FEW030CB 
     PROB30 
     TEMPO 2212/2215 32020G30KT 3000 DRSA 
     PROB30 
     TEMPO 2214/2218 32015G25KT 5000 -TSRA FEW030CB 
     BECMG 2308/2311 26008KT
       
DAAP 221200Z 27015KT 9999 FEW040 26/M07 Q1003
TAF DAAP 221100Z 2212/2221 22010KT 9999 FEW040 
     PROB40 
     TEMPO 2216/2220 FEW040CB
       
DAUZ 221200Z 20015KT 160V220 7000 NSC 24/M08 Q1004
TAF DAUZ 221100Z 2212/2312 20015KT 8000 NSC 
     PROB30 
     TEMPO 2212/2216 22020G30KT 3000 DRSA 
     PROB40 
     TEMPO 2218/2224 FEW040CB 
     BECMG 2300/2303 32012KT
       
DAUI 221200Z 24014KT CAVOK 25/M04 Q1002
TAF DAUI 221100Z 2212/2312 26014KT 8000 NSC 
     PROB40 2212/2218 26024KT 5000 DRSA 
     BECMG 2219/2221 36015KT 
     BECMG 2301/2303 VRB02KT
       
DAAV 221200Z 26007KT 7000 -RA SCT016 FEW026CB BKN030 08/05 Q1004 RERA
TAF DAAV 221100Z 2212/2312 31014KT 6000 -RA FEW015CB BKN023 
     PROB30 
     TEMPO 2212/2222 30020G30KT 3000 TSRAGR
       
DAUL 221100Z 36018KT 9999 FEW023 SCT033 09/M03 Q1004
TAF DAUL 221100Z 2212/2221 36020KT 9999 FEW023 SCT033 
     PROB30 
     TEMPO 2212/2215 36020G30KT 3000 DRSA FEW026CB 
     BECMG 2218/2220 36008KT
       
DAOV 221200Z 00000KT 9999 BKN023 10/05 Q1007
TAF DAOV 221100Z 2212/2221 VRB02KT 9999 BKN023 
     TEMPO 2212/2218 32012KT
       
DAAY 221200Z 36012KT 9999 SCT010 SCT026 05/01 Q1008
TAF DAAY 221100Z 2212/2221 36014KT 9999 SCT010 SCT026
       
DAOO 221230Z 24006KT 9999 FEW020 SCT026 13/06 Q1007
TAF DAOO 221100Z 2212/2312 26012KT 9999 FEW020 BKN026 
     BECMG 2223/2302 VRB02KT 
     PROB30 
     TEMPO 2303/2308 4000 BR SCT010 
     BECMG 2309/2312 04010KT
       
DAOL 221200Z 26010KT 9999 FEW020TCU SCT026 12/09 Q1008
DAUU 221200Z 31008KT 9999 SCT033 SCT100 15/05 Q1001
TAF DAUU 221100Z 2212/2221 32012KT 8000 SCT040 
     PROB40 
     TEMPO 
     PROB30 
     TEMPO 2212/2215 32015G25KT 3000 DRSA FEW033CB 2213/2218 33015G25KT 5000 -TSRA FEW033CB
       
DAAS 221200Z 32011KT 8000 FEW010 SCT026 05/M02 Q1002
TAF DAAS 221100Z 2212/2312 32014KT 6000 -RASN FEW023TCU BKN033 
     PROB30 
     TEMPO 2212/2222 3000 SN BR SCT006 FEW015CB
       
DAAT 221230Z 25020KT CAVOK 21/M06 Q1011
TAF DAAT 221100Z 2212/2312 26015KT 8000 NSC 
     PROB40 
     TEMPO 2212/2218 26020G30KT 5000 DRSA 
     BECMG 2219/2222 32010KT
       
DABS 221200Z 32008KT 9999 FEW030TCU BKN040 06/04 Q1002
TAF DABS 221100Z 2212/2312 33014KT 6000 -SNRA FEW023TCU BKN033 
     PROB30 
     TEMPO 2212/2224 3000 SN BR SCT006 FEW015CB
       
DAOB 221200Z 32006KT 9999 BKN023 06/01 Q1005
TAF DAOB 221100Z 2212/2312 32012KT 9999 BKN023 
     BECMG 2218/2221 VRB02KT 
     BECMG 2303/2306 26010KT
       
DAFH 221200Z 33016KT 9999 SCT026 10/00 Q1003
TAF DAFH 221100Z 2212/2221 02015KT 9999 FEW023 SCT033 
     PROB30 
     TEMPO 2212/2215 02015G25KT 4000 DRSA FEW026CB
       
DAUT 221200Z 01018KT 6000 DRSA NSC 19/03 Q1004
TAF DAUT 221100Z 2212/2221 02020KT 8000 NSC 
     PROB40 2212/2215 5000 DRSA 
     BECMG 2215/2218 02008KT
       
DAOF 221200Z 32008KT CAVOK 20/M00 Q1006
TAF DAOF 221100Z 2212/2221 28010KT CAVOK
       
DAON 221230Z 00000KT 9999 SCT020 14/04 Q1007
TAF DAON 221100Z 2212/2312 VRB02KT 9999 FEW020 SCT026 
     BECMG 2213/2215 30010KT 
     BECMG 2219/2222 VRB02KT 
     PROB30 
     TEMPO 2303/2308 4000 BR SCT010 
     BECMG 2309/2312 02010KT
       
DAUK 221200Z 31012KT 9999 SCT040 SCT100 14/07 Q1001
TAF DAUK 221100Z 2212/2221 32014KT 9999 FEW040 SCT100